Time;durP1;ratioP1;P1;durP2;ratioP2;P2;SDS_P1;SDS_P2;PMS_P1;PMS_P2;Temp;Humidity;BMP_temperature;BMP_pressure;BME280_temperature;BME280_humidity;BME280_pressure;Samples;Min_cycle;Max_cycle;Signal;HPM_P1;HPM_P2
2024/01/08 00:01:09;;;;;;;7.32;4.45;;;-1.70;99.90;;;;;;6299138;22;20039;-75
2024/01/08 00:03:38;;;;;;;6.97;4.40;;;-1.60;99.90;;;;;;6300096;22;20015;-76
2024/01/08 00:06:04;;;;;;;7.97;4.10;;;-1.60;99.90;;;;;;6300272;22;20348;-75
2024/01/08 00:08:29;;;;;;;8.35;4.60;;;-1.60;99.90;;;;;;6300165;22;20019;-76
2024/01/08 00:10:55;;;;;;;7.18;4.70;;;-1.70;99.90;;;;;;6300367;22;20019;-76
2024/01/08 00:13:21;;;;;;;10.38;4.80;;;-1.70;99.90;;;;;;6300274;22;20042;-75
2024/01/08 00:15:47;;;;;;;6.10;4.63;;;-1.70;99.90;;;;;;6299766;22;20293;-76
2024/01/08 00:18:12;;;;;;;7.22;4.68;;;-1.70;99.90;;;;;;6301675;22;20084;-76
2024/01/08 00:20:38;;;;;;;7.95;4.75;;;-1.70;99.90;;;;;;6299913;22;20023;-76
2024/01/08 00:23:04;;;;;;;7.38;4.47;;;-1.70;99.90;;;;;;6299697;22;20051;-76
2024/01/08 00:25:29;;;;;;;9.15;5.10;;;-1.80;99.90;;;;;;6299708;22;20042;-76
2024/01/08 00:27:56;;;;;;;8.02;5.10;;;-1.80;99.90;;;;;;6298840;22;20538;-77
2024/01/08 00:30:21;;;;;;;8.13;4.35;;;-1.70;99.90;;;;;;6298616;22;20023;-76
2024/01/08 00:32:47;;;;;;;10.88;5.07;;;-1.70;99.90;;;;;;6298945;22;20023;-77
2024/01/08 00:35:13;;;;;;;7.97;4.97;;;-1.70;99.90;;;;;;6300832;22;20447;-77
2024/01/08 00:37:41;;;;;;;12.10;5.70;;;-1.70;99.90;;;;;;6299219;22;20402;-77
2024/01/08 00:40:08;;;;;;;9.25;6.00;;;-1.70;99.90;;;;;;6298924;22;20498;-75
2024/01/08 00:42:34;;;;;;;7.43;4.88;;;-1.70;99.90;;;;;;6300488;22;20030;-76
2024/01/08 00:45:00;;;;;;;8.75;5.15;;;-1.70;99.90;;;;;;6300221;22;20094;-76
2024/01/08 00:47:26;;;;;;;8.70;5.13;;;-1.70;99.90;;;;;;6300197;22;20074;-76
2024/01/08 00:49:51;;;;;;;7.95;4.50;;;-1.70;99.90;;;;;;6300066;22;20023;-77
2024/01/08 00:52:17;;;;;;;7.32;4.65;;;-1.70;99.90;;;;;;6300238;22;20447;-76
2024/01/08 00:54:43;;;;;;;9.45;5.10;;;-1.70;99.90;;;;;;6299896;22;20029;-75
2024/01/08 00:57:08;;;;;;;10.38;4.68;;;-1.70;99.90;;;;;;6300160;22;20058;-76
2024/01/08 00:59:34;;;;;;;9.77;4.75;;;-1.70;99.90;;;;;;6299699;22;20407;-76
2024/01/08 01:01:59;;;;;;;7.93;4.80;;;-1.80;99.90;;;;;;6299984;22;20011;-77
2024/01/08 01:04:25;;;;;;;5.00;4.32;;;-1.70;99.90;;;;;;6300081;22;20023;-76
2024/01/08 01:06:51;;;;;;;9.68;5.60;;;-1.80;99.90;;;;;;6300059;22;20019;-76
2024/01/08 01:09:17;;;;;;;7.65;4.88;;;-1.70;99.90;;;;;;6299984;22;20053;-76
2024/01/08 01:11:42;;;;;;;8.23;5.47;;;-1.60;99.90;;;;;;6299866;22;20023;-76
2024/01/08 01:14:08;;;;;;;8.93;5.30;;;-1.60;99.90;;;;;;6299805;22;20459;-76
2024/01/08 01:16:34;;;;;;;8.18;5.03;;;-1.60;99.90;;;;;;6299834;22;20123;-76
2024/01/08 01:19:00;;;;;;;9.10;4.65;;;-1.60;99.90;;;;;;6302152;22;20003;-77
2024/01/08 01:21:27;;;;;;;8.52;5.47;;;-1.60;99.90;;;;;;6299740;22;20015;-76
2024/01/08 01:23:54;;;;;;;7.20;5.03;;;-1.50;99.90;;;;;;6300159;22;20011;-76
2024/01/08 01:26:20;;;;;;;12.45;5.63;;;-1.50;99.90;;;;;;6300498;22;20312;-76
2024/01/08 01:28:46;;;;;;;8.05;5.00;;;-1.50;99.90;;;;;;6299391;22;20026;-76
2024/01/08 01:31:13;;;;;;;7.55;4.95;;;-1.50;99.90;;;;;;6299808;22;20015;-76
2024/01/08 01:33:39;;;;;;;10.35;5.07;;;-1.50;99.90;;;;;;6301815;22;20614;-76
2024/01/08 01:36:06;;;;;;;7.97;5.70;;;-1.50;99.90;;;;;;6299567;22;20015;-77
2024/01/08 01:38:32;;;;;;;10.93;5.05;;;-1.40;99.90;;;;;;6301668;22;20045;-76
2024/01/08 01:40:58;;;;;;;7.15;4.22;;;-1.40;99.90;;;;;;6301499;22;20344;-76
2024/01/08 01:43:25;;;;;;;8.98;5.45;;;-1.30;99.90;;;;;;6300881;22;20042;-76
2024/01/08 01:45:55;;;;;;;7.93;4.70;;;-1.40;99.90;;;;;;6301461;22;20353;-76
2024/01/08 01:48:22;;;;;;;8.93;5.50;;;-1.40;99.90;;;;;;6299552;22;20752;-76
2024/01/08 01:50:48;;;;;;;8.45;4.93;;;-1.30;99.90;;;;;;6299449;22;20075;-76
2024/01/08 01:53:14;;;;;;;5.88;4.63;;;-1.40;99.90;;;;;;6298822;22;20111;-75
2024/01/08 01:55:42;;;;;;;6.15;4.57;;;-1.40;99.90;;;;;;6299476;22;20487;-76
2024/01/08 01:58:09;;;;;;;6.38;4.65;;;-1.50;99.90;;;;;;6299387;22;20316;-76
2024/01/08 02:00:35;;;;;;;8.48;5.00;;;-1.40;99.90;;;;;;6299573;22;20490;-76
2024/01/08 02:03:03;;;;;;;8.85;5.40;;;-1.40;99.90;;;;;;6299690;22;20023;-77
2024/01/08 02:05:29;;;;;;;7.57;5.78;;;-1.40;99.90;;;;;;6299654;22;20059;-76
2024/01/08 02:07:56;;;;;;;6.03;4.93;;;-1.30;99.90;;;;;;6301380;22;20461;-76
2024/01/08 02:10:21;;;;;;;8.52;6.05;;;-1.40;99.90;;;;;;6301565;22;20101;-76
2024/01/08 02:12:47;;;;;;;10.40;5.78;;;-1.40;99.90;;;;;;6301403;22;20353;-76
2024/01/08 02:15:13;;;;;;;8.45;5.53;;;-1.30;99.90;;;;;;6299659;22;20411;-76
2024/01/08 02:17:38;;;;;;;9.65;6.20;;;-1.30;99.90;;;;;;6299620;22;20047;-77
2024/01/08 02:20:05;;;;;;;8.70;5.72;;;-1.30;99.90;;;;;;6301774;22;20030;-76
2024/01/08 02:22:30;;;;;;;9.00;5.93;;;-1.20;99.90;;;;;;6273392;22;20030;-77
2024/01/08 02:24:56;;;;;;;9.85;6.15;;;-1.20;99.90;;;;;;6299404;22;20389;-77
2024/01/08 02:27:22;;;;;;;8.43;6.15;;;-1.20;99.90;;;;;;6273830;22;20030;-77
2024/01/08 02:29:47;;;;;;;8.40;5.78;;;-1.30;99.90;;;;;;6299723;22;20023;-77
2024/01/08 02:32:13;;;;;;;8.27;5.45;;;-1.20;99.90;;;;;;6299806;22;20022;-76
2024/01/08 02:34:39;;;;;;;9.15;5.40;;;-1.20;99.90;;;;;;6299829;22;20111;-77
2024/01/08 02:37:05;;;;;;;9.95;6.07;;;-1.20;99.90;;;;;;6299625;22;20419;-76
2024/01/08 02:39:31;;;;;;;9.07;5.75;;;-1.20;99.90;;;;;;6273075;22;20019;-76
2024/01/08 02:41:56;;;;;;;10.82;6.43;;;-1.20;99.90;;;;;;6299178;22;20023;-77
2024/01/08 02:44:22;;;;;;;9.40;5.30;;;-1.10;99.90;;;;;;6299337;22;20546;-77
2024/01/08 02:46:48;;;;;;;8.57;5.90;;;-1.10;99.90;;;;;;6273684;22;20416;-77
2024/01/08 02:49:14;;;;;;;9.23;5.60;;;-1.10;99.90;;;;;;6299245;22;20011;-77
2024/01/08 02:51:39;;;;;;;11.55;6.30;;;-1.10;99.90;;;;;;6301704;22;20174;-77
2024/01/08 02:54:05;;;;;;;13.25;5.97;;;-1.10;99.90;;;;;;6299393;22;20015;-77
2024/01/08 02:56:31;;;;;;;9.13;5.95;;;-1.10;99.90;;;;;;6299474;22;20019;-77
2024/01/08 02:58:56;;;;;;;11.95;5.78;;;-1.10;99.90;;;;;;6299712;22;20351;-77
2024/01/08 03:01:22;;;;;;;15.40;6.25;;;-1.00;99.90;;;;;;6299833;22;20015;-77
2024/01/08 03:03:48;;;;;;;9.95;5.47;;;-1.10;99.90;;;;;;6299445;22;20066;-77
2024/01/08 03:06:14;;;;;;;8.70;6.22;;;-1.00;99.90;;;;;;6301616;22;20015;-76
2024/01/08 03:08:39;;;;;;;11.35;6.65;;;-1.10;99.90;;;;;;6300661;22;20016;-77
2024/01/08 03:11:05;;;;;;;10.93;6.35;;;-1.00;99.90;;;;;;6301379;22;20027;-77
2024/01/08 03:13:31;;;;;;;10.63;6.20;;;-1.00;99.90;;;;;;6273635;22;20442;-77
2024/01/08 03:15:56;;;;;;;13.93;6.65;;;-0.90;99.90;;;;;;6299404;22;20023;-77
2024/01/08 03:18:22;;;;;;;14.98;6.95;;;-1.00;99.90;;;;;;6299469;22;20019;-78
2024/01/08 03:20:47;;;;;;;7.95;5.90;;;-0.80;99.90;;;;;;6299641;22;20018;-77
2024/01/08 03:23:13;;;;;;;12.00;7.00;;;-0.90;99.90;;;;;;6299016;22;20022;-77
2024/01/08 03:25:39;;;;;;;11.57;6.82;;;-0.90;99.90;;;;;;6299975;22;20049;-77
2024/01/08 03:28:05;;;;;;;10.75;6.68;;;-0.90;99.90;;;;;;6274337;22;20060;-77
2024/01/08 03:30:31;;;;;;;10.60;6.20;;;-0.80;99.90;;;;;;6299601;22;20053;-77
2024/01/08 03:32:58;;;;;;;12.55;7.13;;;-0.80;99.90;;;;;;6301578;22;20015;-77
2024/01/08 03:35:24;;;;;;;9.88;6.18;;;-0.80;99.90;;;;;;6298990;22;20011;-77
2024/01/08 03:37:50;;;;;;;10.13;5.78;;;-0.80;99.90;;;;;;6300815;22;20026;-77
2024/01/08 03:40:15;;;;;;;14.02;6.50;;;-0.80;99.90;;;;;;6301362;22;20023;-77
2024/01/08 03:42:41;;;;;;;9.40;6.32;;;-0.80;99.90;;;;;;6299128;22;20068;-77
2024/01/08 03:45:08;;;;;;;11.77;6.15;;;-0.80;99.90;;;;;;6301271;22;20382;-77
2024/01/08 03:47:34;;;;;;;12.73;6.45;;;-0.80;99.90;;;;;;6298933;22;20082;-77
2024/01/08 03:50:00;;;;;;;11.63;6.50;;;-0.80;99.90;;;;;;6298862;22;20068;-77
2024/01/08 03:52:26;;;;;;;9.27;6.28;;;-0.70;99.90;;;;;;6298755;22;20479;-77
2024/01/08 03:54:51;;;;;;;11.95;6.95;;;-0.70;99.90;;;;;;6273335;22;20019;-77
2024/01/08 03:57:17;;;;;;;11.70;6.88;;;-0.70;99.90;;;;;;6301135;22;20088;-77
2024/01/08 03:59:43;;;;;;;9.43;5.68;;;-0.80;99.90;;;;;;6301222;22;20508;-77
2024/01/08 04:02:09;;;;;;;9.98;5.47;;;-0.70;99.90;;;;;;6301216;22;20038;-77
2024/01/08 04:04:34;;;;;;;12.68;6.75;;;-0.70;99.90;;;;;;6299041;22;20049;-77
2024/01/08 04:07:00;;;;;;;8.07;5.63;;;-0.70;99.90;;;;;;6298771;22;20042;-77
2024/01/08 04:09:26;;;;;;;9.30;6.03;;;-0.70;99.90;;;;;;6298824;22;20023;-77
2024/01/08 04:11:52;;;;;;;9.27;6.30;;;-0.80;99.90;;;;;;6299060;22;20347;-77
2024/01/08 04:14:17;;;;;;;11.48;5.82;;;-0.70;99.90;;;;;;6298879;22;20034;-76
2024/01/08 04:16:43;;;;;;;10.32;6.10;;;-0.80;99.90;;;;;;6302045;22;20011;-77
2024/01/08 04:19:09;;;;;;;11.10;5.47;;;-0.70;99.90;;;;;;6303257;22;20015;-77
2024/01/08 04:21:35;;;;;;;9.60;5.82;;;-0.80;99.90;;;;;;6302522;22;20632;-77
2024/01/08 04:24:00;;;;;;;9.95;5.70;;;-0.70;99.90;;;;;;6301148;22;20054;-77
2024/01/08 04:26:27;;;;;;;9.20;5.07;;;-0.70;99.90;;;;;;6301755;22;20023;-76
2024/01/08 04:28:52;;;;;;;7.97;5.30;;;-0.70;99.90;;;;;;6301206;22;20019;-77
2024/01/08 04:31:19;;;;;;;6.05;4.93;;;-0.70;99.90;;;;;;6301019;22;20011;-76
2024/01/08 04:33:45;;;;;;;7.40;4.60;;;-0.70;99.90;;;;;;6275161;22;20015;-77
2024/01/08 04:36:14;;;;;;;10.27;5.40;;;-0.70;99.90;;;;;;6300574;22;20084;-77
2024/01/08 04:38:40;;;;;;;11.57;5.00;;;-0.70;99.90;;;;;;6300490;22;20026;-77
2024/01/08 04:41:07;;;;;;;10.05;5.30;;;-0.70;99.90;;;;;;6300466;22;20011;-76
2024/01/08 04:43:32;;;;;;;11.77;5.45;;;-0.70;99.90;;;;;;6300622;22;20101;-77
2024/01/08 04:45:58;;;;;;;7.72;5.13;;;-0.70;99.90;;;;;;6274709;22;20053;-78
2024/01/08 04:48:24;;;;;;;5.78;4.35;;;-0.70;99.90;;;;;;6300766;22;20089;-79
2024/01/08 04:50:49;;;;;;;6.60;4.65;;;-0.70;99.90;;;;;;6300474;22;20351;-79
2024/01/08 04:53:15;;;;;;;8.05;4.75;;;-0.70;99.90;;;;;;6300716;22;20094;-79
2024/01/08 04:55:41;;;;;;;6.85;4.47;;;-0.70;99.90;;;;;;6302298;22;20019;-79
2024/01/08 04:58:06;;;;;;;5.13;3.70;;;-0.70;99.90;;;;;;6300609;22;20096;-81
2024/01/08 05:00:32;;;;;;;7.28;4.55;;;-0.70;99.90;;;;;;6300434;22;20027;-80
2024/01/08 05:02:58;;;;;;;7.60;4.88;;;-0.70;99.90;;;;;;6300724;22;20116;-80
2024/01/08 05:05:23;;;;;;;7.35;3.92;;;-0.70;99.90;;;;;;6299993;22;20015;-79
2024/01/08 05:07:49;;;;;;;5.78;4.07;;;-0.70;99.90;;;;;;6300164;22;20186;-80
2024/01/08 05:10:15;;;;;;;6.68;4.28;;;-0.70;99.90;;;;;;6274402;22;20019;-79
2024/01/08 05:12:41;;;;;;;5.25;3.95;;;-0.70;99.90;;;;;;6300023;22;20019;-79
2024/01/08 05:15:07;;;;;;;5.88;3.92;;;-0.60;99.90;;;;;;6300222;22;20269;-79
2024/01/08 05:17:32;;;;;;;8.15;4.55;;;-0.70;99.90;;;;;;6300109;22;20589;-80
2024/01/08 05:19:58;;;;;;;4.80;3.97;;;-0.70;99.90;;;;;;6300085;22;20023;-80
2024/01/08 05:22:24;;;;;;;5.15;4.15;;;-0.70;99.90;;;;;;6300188;22;20015;-80
2024/01/08 05:24:49;;;;;;;8.05;4.15;;;-0.70;99.90;;;;;;6300389;22;20015;-80
2024/01/08 05:27:15;;;;;;;8.68;4.50;;;-0.80;99.90;;;;;;6300505;22;20119;-80
2024/01/08 05:29:41;;;;;;;6.38;3.67;;;-0.80;99.90;;;;;;6300410;22;20030;-80
2024/01/08 05:32:07;;;;;;;6.80;4.53;;;-0.80;99.90;;;;;;6302421;22;20409;-80
2024/01/08 05:34:32;;;;;;;6.53;4.43;;;-0.80;99.90;;;;;;6300453;22;20111;-81
2024/01/08 05:36:58;;;;;;;7.03;4.30;;;-0.80;99.90;;;;;;6274538;22;20401;-80
2024/01/08 05:39:24;;;;;;;5.80;4.55;;;-0.80;99.90;;;;;;6300044;22;20394;-79
2024/01/08 05:41:50;;;;;;;7.50;4.95;;;-0.80;99.90;;;;;;6301887;22;20015;-78
2024/01/08 05:44:15;;;;;;;7.25;5.65;;;-0.80;99.90;;;;;;6299805;22;20025;-78
2024/01/08 05:46:44;;;;;;;5.85;4.43;;;-0.70;99.90;;;;;;6300233;22;20019;-79
2024/01/08 05:49:10;;;;;;;10.10;5.05;;;-0.70;99.90;;;;;;6299711;22;20419;-79
2024/01/08 05:51:36;;;;;;;9.40;5.50;;;-0.70;99.90;;;;;;6274107;22;20400;-79
2024/01/08 05:54:02;;;;;;;10.10;5.05;;;-0.80;99.90;;;;;;6299776;22;20015;-80
2024/01/08 05:56:29;;;;;;;8.73;5.32;;;-0.80;99.90;;;;;;6299698;22;20103;-80
2024/01/08 05:58:54;;;;;;;9.60;5.57;;;-0.90;99.90;;;;;;6299696;22;20018;-79
2024/01/08 06:01:21;;;;;;;10.07;5.70;;;-0.80;99.90;;;;;;6299697;22;20015;-79
2024/01/08 06:03:47;;;;;;;8.57;5.15;;;-0.90;99.90;;;;;;6299481;22;20061;-77
2024/01/08 06:06:13;;;;;;;8.45;6.03;;;-0.80;99.90;;;;;;6299880;22;20015;-77
2024/01/08 06:08:40;;;;;;;9.25;5.18;;;-0.80;99.90;;;;;;6299597;22;20101;-77
2024/01/08 06:11:07;;;;;;;9.50;5.28;;;-0.80;99.90;;;;;;6301805;22;20090;-77
2024/01/08 06:13:32;;;;;;;12.23;5.85;;;-0.80;99.90;;;;;;6299593;22;20015;-77
2024/01/08 06:15:58;;;;;;;7.53;5.05;;;-0.80;99.90;;;;;;6299761;22;20022;-78
2024/01/08 06:18:24;;;;;;;10.60;5.22;;;-0.80;99.90;;;;;;6301577;22;20011;-77
2024/01/08 06:20:52;;;;;;;9.27;4.90;;;-0.80;99.90;;;;;;6274117;22;20090;-77
2024/01/08 06:23:17;;;;;;;6.20;5.05;;;-0.80;99.90;;;;;;6299702;22;20038;-77
2024/01/08 06:25:43;;;;;;;9.95;5.95;;;-0.90;99.90;;;;;;6300169;22;20019;-78
2024/01/08 06:28:09;;;;;;;9.30;5.65;;;-0.90;99.90;;;;;;6299568;22;20118;-78
2024/01/08 06:30:34;;;;;;;10.55;4.95;;;-0.90;99.90;;;;;;6301093;22;20015;-77
2024/01/08 06:33:00;;;;;;;9.57;5.55;;;-0.90;99.90;;;;;;6299226;22;20118;-78
2024/01/08 06:35:26;;;;;;;10.35;5.65;;;-0.80;99.90;;;;;;6301197;22;20440;-78
2024/01/08 06:37:51;;;;;;;5.97;5.00;;;-0.90;99.90;;;;;;6299091;22;20031;-78
2024/01/08 06:40:17;;;;;;;7.47;5.38;;;-0.90;99.90;;;;;;6299475;22;20019;-78
2024/01/08 06:42:42;;;;;;;8.57;5.45;;;-0.90;99.90;;;;;;6299502;22;20386;-78
2024/01/08 06:45:08;;;;;;;6.88;4.88;;;-0.90;99.90;;;;;;6299572;22;20015;-78
2024/01/08 06:47:34;;;;;;;8.88;5.60;;;-0.80;99.90;;;;;;6299375;22;20019;-80
2024/01/08 06:50:00;;;;;;;11.65;5.70;;;-0.90;99.90;;;;;;6299302;22;20114;-81
2024/01/08 06:52:26;;;;;;;9.65;5.43;;;-0.90;99.90;;;;;;6299497;22;20576;-80
2024/01/08 06:54:52;;;;;;;9.40;5.63;;;-0.90;99.90;;;;;;6299296;22;20019;-80
2024/01/08 06:57:17;;;;;;;9.27;5.75;;;-0.90;99.90;;;;;;6299034;22;20057;-78
2024/01/08 06:59:43;;;;;;;10.57;5.93;;;-0.90;99.90;;;;;;6299148;22;20017;-79
2024/01/08 07:02:09;;;;;;;9.65;6.15;;;-0.90;99.90;;;;;;6298933;22;20070;-78
2024/01/08 07:04:34;;;;;;;10.43;5.38;;;-0.80;99.90;;;;;;6299598;22;20370;-79
2024/01/08 07:07:00;;;;;;;8.57;5.63;;;-0.80;99.90;;;;;;6299190;22;20019;-79
2024/01/08 07:09:26;;;;;;;9.55;5.65;;;-0.80;99.90;;;;;;6273110;22;20086;-79
2024/01/08 07:11:51;;;;;;;8.27;5.47;;;-0.80;99.90;;;;;;6299130;22;20022;-79
2024/01/08 07:14:17;;;;;;;6.70;5.28;;;-0.80;99.90;;;;;;6299697;22;20510;-80
2024/01/08 07:16:43;;;;;;;11.82;5.65;;;-0.80;99.90;;;;;;6299954;22;20016;-80
2024/01/08 07:19:08;;;;;;;6.43;4.82;;;-0.80;99.90;;;;;;6299278;22;20023;-80
2024/01/08 07:21:34;;;;;;;8.48;5.18;;;-0.70;99.90;;;;;;6300813;22;20349;-80
2024/01/08 07:24:00;;;;;;;8.48;5.10;;;-0.70;99.90;;;;;;6299275;22;20022;-79
2024/01/08 07:26:26;;;;;;;8.63;5.25;;;-0.80;99.90;;;;;;6299373;22;20102;-78
2024/01/08 07:28:51;;;;;;;10.02;5.22;;;-0.70;99.90;;;;;;6274075;22;20026;-78
2024/01/08 07:31:17;;;;;;;7.57;4.82;;;-0.70;99.90;;;;;;6303552;22;20019;-77
2024/01/08 07:33:43;;;;;;;11.05;6.03;;;-0.70;99.90;;;;;;6303511;22;20096;-85
2024/01/08 07:36:09;;;;;;;12.15;7.05;;;-0.50;99.90;;;;;;6304857;22;20015;-80
2024/01/08 07:38:36;;;;;;;7.50;4.97;;;-0.60;99.90;;;;;;6305661;22;20047;-80
2024/01/08 07:41:02;;;;;;;10.68;5.53;;;-0.60;99.90;;;;;;6279032;22;20018;-80
2024/01/08 07:43:28;;;;;;;12.30;5.13;;;-0.60;99.90;;;;;;6303023;22;20023;-80
2024/01/08 07:45:54;;;;;;;8.13;5.57;;;-0.60;99.90;;;;;;6300663;22;20090;-80
2024/01/08 07:48:20;;;;;;;8.25;5.47;;;-0.60;99.90;;;;;;6300997;22;20043;-80
2024/01/08 07:50:46;;;;;;;7.03;5.25;;;-0.60;99.90;;;;;;6302363;22;20023;-81
2024/01/08 07:53:12;;;;;;;8.43;4.57;;;-0.60;99.90;;;;;;6301576;22;20086;-81
2024/01/08 07:55:38;;;;;;;13.43;5.05;;;-0.50;99.90;;;;;;6301464;22;20082;-82
2024/01/08 07:58:04;;;;;;;9.10;5.30;;;-0.50;99.90;;;;;;6301574;22;20020;-80
2024/01/08 08:00:29;;;;;;;13.27;6.15;;;-0.50;99.90;;;;;;6300678;22;20019;-81
2024/01/08 08:02:55;;;;;;;7.47;5.22;;;-0.50;99.90;;;;;;6301542;22;20019;-80
2024/01/08 08:05:21;;;;;;;10.82;5.32;;;-0.50;99.90;;;;;;6301375;22;20023;-81
2024/01/08 08:07:47;;;;;;;11.15;4.78;;;-0.40;99.90;;;;;;6302914;22;20015;-80
2024/01/08 08:10:12;;;;;;;9.70;4.95;;;-0.40;99.90;;;;;;6301441;22;20118;-79
2024/01/08 08:12:38;;;;;;;12.98;5.97;;;-0.40;99.90;;;;;;6301255;22;20090;-79
2024/01/08 08:15:05;;;;;;;7.88;5.22;;;-0.40;99.90;;;;;;6302720;22;20011;-79
2024/01/08 08:17:31;;;;;;;8.45;4.55;;;-0.40;99.90;;;;;;6301036;22;20027;-79
2024/01/08 08:19:56;;;;;;;9.25;5.07;;;-0.40;99.90;;;;;;6300712;22;20143;-78
2024/01/08 08:22:22;;;;;;;8.73;4.72;;;-0.40;99.90;;;;;;6300169;22;20022;-79
2024/01/08 08:24:48;;;;;;;6.55;4.63;;;-0.40;99.90;;;;;;6300692;22;20019;-78
2024/01/08 08:27:14;;;;;;;8.55;4.85;;;-0.40;99.90;;;;;;6275435;22;20015;-79
2024/01/08 08:29:45;;;;;;;10.00;4.88;;;-0.40;99.90;;;;;;6300624;22;20406;-79
2024/01/08 08:32:11;;;;;;;10.68;5.00;;;-0.40;99.90;;;;;;6300824;22;20023;-78
2024/01/08 08:34:39;;;;;;;5.60;4.30;;;-0.30;99.90;;;;;;6300772;22;20019;-79
2024/01/08 08:37:08;;;;;;;9.77;4.57;;;-0.30;99.90;;;;;;6300774;22;20474;-79
2024/01/08 08:39:34;;;;;;;6.13;4.65;;;-0.30;99.90;;;;;;6275033;22;20007;-78
2024/01/08 08:42:00;;;;;;;6.85;4.75;;;-0.30;99.90;;;;;;6300634;22;20060;-78
2024/01/08 08:44:25;;;;;;;5.97;4.30;;;-0.30;99.90;;;;;;6275088;22;20019;-78
2024/01/08 08:46:51;;;;;;;10.35;4.68;;;-0.30;99.90;;;;;;6300754;22;20026;-76
2024/01/08 08:49:17;;;;;;;5.90;4.35;;;0.10;99.90;;;;;;6300476;22;20045;-75
2024/01/08 08:51:46;;;;;;;4.82;3.85;;;0.00;99.90;;;;;;6300634;22;20090;-75
2024/01/08 08:54:11;;;;;;;13.18;4.60;;;-0.10;99.90;;;;;;6300750;22;20054;-75
2024/01/08 08:56:39;;;;;;;7.45;4.32;;;-0.10;99.90;;;;;;6300386;22;20023;-75
2024/01/08 08:59:05;;;;;;;6.32;3.63;;;-0.10;99.90;;;;;;6301073;22;20011;-74
2024/01/08 09:01:30;;;;;;;7.03;4.38;;;-0.10;99.90;;;;;;6300133;22;20108;-74
2024/01/08 09:03:56;;;;;;;7.20;4.68;;;-0.10;99.90;;;;;;6300343;22;20073;-75
2024/01/08 09:06:27;;;;;;;7.15;4.00;;;-0.10;99.90;;;;;;6300518;22;20103;-74
2024/01/08 09:08:57;;;;;;;6.40;4.65;;;-0.10;99.90;;;;;;6274496;22;20053;-75
2024/01/08 09:11:23;;;;;;;7.20;3.97;;;-0.10;99.90;;;;;;6300089;22;20047;-76
2024/01/08 09:13:49;;;;;;;5.97;4.22;;;-0.10;99.90;;;;;;6302159;22;20018;-76
2024/01/08 09:16:16;;;;;;;8.23;3.75;;;-0.10;99.90;;;;;;6300410;22;20595;-78
2024/01/08 09:18:43;;;;;;;7.20;3.90;;;-0.10;99.90;;;;;;6300213;22;20062;-76
2024/01/08 09:21:10;;;;;;;9.77;4.70;;;-0.10;99.90;;;;;;6300065;22;20049;-75
2024/01/08 09:23:36;;;;;;;8.23;4.50;;;-0.10;99.90;;;;;;6300506;22;20019;-76
2024/01/08 09:26:04;;;;;;;5.80;4.43;;;-0.10;99.90;;;;;;6302671;22;20015;-77
2024/01/08 09:28:30;;;;;;;8.00;4.57;;;0.00;99.90;;;;;;6302774;22;20463;-77
2024/01/08 09:30:56;;;;;;;7.40;4.30;;;0.00;99.90;;;;;;6300892;22;20343;-78
2024/01/08 09:33:22;;;;;;;5.35;3.85;;;0.00;99.90;;;;;;6300961;22;20027;-78
2024/01/08 09:35:48;;;;;;;8.25;5.13;;;0.00;99.90;;;;;;6300549;22;20093;-80
2024/01/08 09:38:13;;;;;;;9.50;5.10;;;0.10;99.90;;;;;;6302885;22;20060;-75
2024/01/08 09:40:42;;;;;;;7.80;4.43;;;0.10;99.90;;;;;;6302174;22;20434;-78
2024/01/08 09:43:09;;;;;;;7.45;4.40;;;0.00;99.90;;;;;;6299528;22;20426;-77
2024/01/08 09:45:48;;;;;;;8.80;5.13;;;0.10;99.90;;;;;;6300156;22;20038;-78
2024/01/08 09:48:14;;;;;;;7.95;4.78;;;0.10;99.90;;;;;;6300126;22;20023;-78
2024/01/08 09:50:40;;;;;;;5.03;4.05;;;0.10;99.90;;;;;;6300145;22;20019;-77
2024/01/08 09:53:06;;;;;;;6.50;4.20;;;0.10;99.90;;;;;;6300237;22;20073;-78
2024/01/08 09:55:33;;;;;;;6.75;3.90;;;0.10;99.90;;;;;;6299844;22;20042;-76
2024/01/08 09:58:01;;;;;;;5.50;3.92;;;0.10;99.90;;;;;;6301973;22;20057;-77
2024/01/08 10:00:26;;;;;;;7.03;4.15;;;0.10;99.90;;;;;;6300025;22;20022;-78
2024/01/08 10:02:56;;;;;;;6.47;4.43;;;0.10;99.90;;;;;;6300066;22;20031;-77
2024/01/08 10:05:22;;;;;;;5.90;4.43;;;0.20;99.90;;;;;;6299912;22;20380;-78
2024/01/08 10:07:47;;;;;;;6.00;4.32;;;0.10;99.90;;;;;;6273824;22;20030;-78
2024/01/08 10:10:13;;;;;;;6.15;3.83;;;0.10;99.90;;;;;;6299394;22;20023;-78
2024/01/08 10:12:42;;;;;;;6.85;4.10;;;0.10;99.90;;;;;;6299720;22;20015;-78
2024/01/08 10:15:10;;;;;;;6.70;3.92;;;0.10;99.90;;;;;;6299657;22;20088;-77
2024/01/08 10:17:36;;;;;;;5.60;4.22;;;0.10;99.90;;;;;;6301943;22;20316;-79
2024/01/08 10:20:08;;;;;;;8.40;4.63;;;0.20;99.90;;;;;;6299882;22;20015;-78
2024/01/08 10:22:34;;;;;;;;;;;0.10;99.90;;;;;;6300126;22;20169;-78
2024/01/08 10:25:03;;;;;;;6.70;4.47;;;0.10;99.90;;;;;;6299668;22;20447;-77
2024/01/08 10:27:30;;;;;;;8.13;4.13;;;0.20;99.90;;;;;;6299701;22;20026;-77
2024/01/08 10:29:56;;;;;;;6.15;4.68;;;0.20;99.90;;;;;;6299626;22;20473;-77
2024/01/08 10:32:24;;;;;;;6.80;4.28;;;0.20;99.90;;;;;;6299251;22;20019;-81
2024/01/08 10:34:51;;;;;;;5.22;4.03;;;0.10;99.90;;;;;;6299422;22;20078;-77
2024/01/08 10:37:18;;;;;;;6.93;3.92;;;0.10;99.90;;;;;;6299395;22;20050;-86
2024/01/08 10:39:47;;;;;;;6.35;4.28;;;0.10;99.90;;;;;;6273653;22;20026;-76
2024/01/08 10:42:12;;;;;;;7.70;4.47;;;0.10;99.90;;;;;;6299583;22;20065;-78
2024/01/08 10:44:47;;;;;;;7.20;4.13;;;0.20;99.90;;;;;;5085305;27;20440;-76
2024/01/08 10:47:22;;;;;;;6.57;3.95;;;0.20;99.90;;;;;;5084041;28;20462;-77
2024/01/08 10:49:52;;;;;;;8.20;4.85;;;0.20;99.90;;;;;;5067534;28;20093;-82
2024/01/08 10:52:29;;;;;;;6.72;4.15;;;0.30;99.90;;;;;;5072032;22;20091;-77
2024/01/08 10:54:56;;;;;;;6.93;4.30;;;0.30;99.90;;;;;;5043703;28;20421;-73
2024/01/08 10:57:34;;;;;;;4.38;3.80;;;0.30;99.90;;;;;;5045208;28;20500;-78
2024/01/08 11:00:01;;;;;;;7.60;4.40;;;0.20;99.90;;;;;;5043784;28;20410;-77
2024/01/08 11:02:27;;;;;;;6.43;4.25;;;0.30;99.90;;;;;;5044817;28;20046;-78
2024/01/08 11:05:01;;;;;;;8.23;4.40;;;0.30;99.90;;;;;;5044955;28;20049;-77
2024/01/08 11:07:29;;;;;;;6.90;3.75;;;0.30;99.90;;;;;;5042894;28;20092;-76
2024/01/08 11:10:04;;;;;;;4.25;3.78;;;0.30;99.90;;;;;;5043392;28;20129;-76
2024/01/08 11:12:30;;;;;;;6.00;3.60;;;0.30;99.90;;;;;;5043497;28;20096;-77
2024/01/08 11:15:04;;;;;;;6.93;3.90;;;0.30;99.90;;;;;;5042937;28;20132;-77
2024/01/08 11:17:30;;;;;;;6.85;4.00;;;0.30;99.90;;;;;;5043587;28;20049;-77
2024/01/08 11:19:57;;;;;;;7.03;3.80;;;0.30;99.90;;;;;;5043121;28;20072;-80
2024/01/08 11:22:23;;;;;;;5.38;4.10;;;0.40;99.90;;;;;;5042711;28;20049;-75
2024/01/08 11:24:49;;;;;;;6.35;4.30;;;0.40;99.90;;;;;;5043401;28;20053;-73
2024/01/08 11:27:16;;;;;;;5.65;4.30;;;0.40;99.90;;;;;;5044827;28;20069;-75
2024/01/08 11:29:43;;;;;;;6.13;3.70;;;0.50;99.90;;;;;;5044576;28;20053;-75
2024/01/08 11:32:28;;;;;;;6.80;3.65;;;0.40;99.90;;;;;;5044470;28;20061;-75
2024/01/08 11:35:00;;;;;;;7.20;4.60;;;0.60;99.90;;;;;;5043285;28;20045;-75
2024/01/08 11:37:37;;;;;;;11.63;4.03;;;0.60;99.90;;;;;;5043295;28;20393;-77
2024/01/08 11:40:18;;;;;;;7.40;4.10;;;0.60;99.90;;;;;;5043288;28;20046;-75
2024/01/08 11:42:51;;;;;;;6.68;4.10;;;0.70;99.90;;;;;;5043306;28;20440;-78
2024/01/08 11:45:19;;;;;;;8.45;4.43;;;0.70;99.90;;;;;;5026635;28;20041;-78
2024/01/08 11:47:45;;;;;;;7.35;4.47;;;0.80;99.90;;;;;;5027273;28;20045;-78
2024/01/08 11:50:11;;;;;;;6.30;4.70;;;0.80;99.90;;;;;;5042898;28;20079;-78
2024/01/08 11:52:38;;;;;;;6.28;4.30;;;0.80;99.90;;;;;;5042592;28;20061;-78
2024/01/08 11:55:06;;;;;;;7.35;4.43;;;0.90;99.90;;;;;;5019063;28;20428;-78
2024/01/08 11:57:33;;;;;;;11.95;5.32;;;1.00;99.90;;;;;;5029549;28;20473;-79
2024/01/08 11:59:59;;;;;;;7.18;4.05;;;1.10;99.90;;;;;;5031023;28;20102;-78
2024/01/08 12:02:28;;;;;;;9.40;4.40;;;1.00;99.90;;;;;;5030790;28;20049;-78
2024/01/08 12:04:56;;;;;;;6.20;4.13;;;1.10;99.90;;;;;;5029190;28;20038;-78
2024/01/08 12:07:23;;;;;;;5.80;4.20;;;1.00;99.90;;;;;;5029425;28;20045;-78
2024/01/08 12:09:50;;;;;;;6.45;4.35;;;1.00;99.90;;;;;;5029338;28;20029;-78
2024/01/08 12:12:20;;;;;;;4.90;3.83;;;0.90;99.90;;;;;;5029115;28;20049;-78
2024/01/08 12:14:48;;;;;;;6.57;4.55;;;0.90;99.90;;;;;;5029039;28;20056;-78
2024/01/08 12:17:17;;;;;;;7.15;5.00;;;1.00;99.90;;;;;;5029110;28;20217;-79
2024/01/08 12:19:56;;;;;;;6.68;4.47;;;1.00;99.90;;;;;;5028642;28;20052;-75
2024/01/08 12:22:23;;;;;;;6.22;3.33;;;1.00;99.90;;;;;;5028801;28;20405;-70
2024/01/08 12:28:01;;;;;;;5.72;3.10;;;1.30;99.90;;;;;;5146693;27;1288261;-71
2024/01/08 12:30:27;;;;;;;3.80;3.17;;;1.50;99.90;;;;;;5149559;27;20495;-71
2024/01/08 12:32:53;;;;;;;4.07;3.13;;;1.20;99.90;;;;;;5149653;27;20047;-70
2024/01/08 12:35:19;;;;;;;5.07;3.20;;;1.00;99.90;;;;;;5168267;27;20075;-67
2024/01/08 12:37:45;;;;;;;7.80;3.50;;;0.80;99.90;;;;;;5168709;27;20050;-69
2024/01/08 12:40:11;;;;;;;4.45;3.20;;;1.10;99.90;;;;;;5149624;27;20103;-68
2024/01/08 12:42:37;;;;;;;4.20;3.22;;;0.90;99.90;;;;;;5168550;27;20081;-69
2024/01/08 12:45:05;;;;;;;6.50;3.15;;;0.80;99.90;;;;;;5168323;27;20074;-68
2024/01/08 12:47:31;;;;;;;4.78;3.55;;;0.70;99.90;;;;;;5149387;27;20046;-69